createdAt,value
2022-08-16T00:01:22.185Z,22.45
2022-08-16T00:03:54.128Z,22.46
2022-08-16T00:06:21.946Z,22.43
2022-08-16T00:08:49.483Z,22.37
2022-08-16T00:11:16.796Z,22.36
2022-08-16T00:13:54.174Z,22.27
2022-08-16T00:17:01.068Z,22.25
2022-08-16T00:19:17.166Z,22.21
2022-08-16T00:21:46.869Z,22.18
2022-08-16T00:24:31.098Z,22.15
2022-08-16T00:27:04.072Z,22.12
2022-08-16T00:29:32.016Z,22.04
2022-08-16T00:32:06.059Z,22.08
2022-08-16T00:34:43.999Z,22.03
2022-08-16T00:37:20.874Z,21.91
2022-08-16T00:39:56.926Z,21.95
2022-08-16T00:42:30.712Z,21.92
2022-08-16T00:45:09.712Z,21.90
2022-08-16T00:47:49.597Z,21.87
2022-08-16T00:50:20.376Z,21.84
2022-08-16T00:52:50.899Z,21.79
2022-08-16T00:55:20.139Z,21.60
2022-08-16T00:57:59.482Z,21.73
2022-08-16T01:00:30.378Z,21.69
2022-08-16T01:03:02.672Z,21.67
2022-08-16T01:05:30.513Z,21.64
2022-08-16T01:08:35.463Z,21.59
2022-08-16T01:10:52.842Z,21.58
2022-08-16T01:13:26.931Z,21.56
2022-08-16T01:16:01.125Z,21.54
2022-08-16T01:18:39.860Z,21.50
2022-08-16T01:21:25.309Z,21.47
2022-08-16T01:24:51.415Z,21.44
2022-08-16T01:27:18.945Z,21.42
2022-08-16T01:29:58.195Z,21.40
2022-08-16T01:32:31.427Z,21.32
2022-08-16T01:35:00.765Z,21.35
2022-08-16T01:37:27.601Z,21.32
2022-08-16T01:40:07.154Z,21.30
2022-08-16T01:42:37.079Z,21.23
2022-08-16T01:45:11.375Z,21.24
2022-08-16T01:47:49.451Z,21.23
2022-08-16T01:50:42.549Z,21.14
2022-08-16T01:53:10.170Z,21.15
2022-08-16T01:55:40.631Z,21.12
2022-08-16T01:58:07.497Z,21.09
2022-08-16T02:00:40.491Z,21.06
2022-08-16T02:03:08.045Z,21.03
2022-08-16T02:05:42.150Z,20.99
2022-08-16T02:08:32.790Z,20.96
2022-08-16T02:11:00.546Z,20.86
2022-08-16T02:13:32.655Z,20.88
2022-08-16T02:15:59.932Z,20.85
2022-08-16T02:18:26.682Z,20.64
2022-08-16T02:20:53.921Z,20.78
2022-08-16T02:23:21.519Z,20.78
2022-08-16T02:25:53.728Z,20.77
2022-08-16T02:28:23.526Z,20.74
2022-08-16T02:30:51.700Z,20.71
2022-08-16T02:33:24.405Z,20.68
2022-08-16T02:35:55.129Z,20.66
2022-08-16T02:38:28.356Z,20.63
2022-08-16T02:40:57.906Z,20.60
2022-08-16T02:43:33.193Z,20.59
2022-08-16T02:46:00.044Z,20.57
2022-08-16T02:48:31.104Z,20.55
2022-08-16T02:51:06.291Z,20.54
2022-08-16T02:53:43.092Z,20.53
2022-08-16T02:56:14.938Z,20.51
2022-08-16T02:58:42.381Z,20.49
2022-08-16T03:01:24.341Z,20.47
2022-08-16T03:04:39.613Z,20.42
2022-08-16T03:06:48.232Z,20.40
2022-08-16T03:09:17.714Z,20.34
2022-08-16T03:11:44.853Z,20.33
2022-08-16T03:14:12.340Z,20.26
2022-08-16T03:16:59.117Z,20.25
2022-08-16T03:19:48.378Z,20.23
2022-08-16T03:22:19.511Z,20.18
2022-08-16T03:24:57.429Z,20.16
2022-08-16T03:27:25.340Z,20.13
2022-08-16T03:29:57.994Z,20.07
2022-08-16T03:32:26.746Z,20.07
2022-08-16T03:34:56.163Z,20.05
2022-08-16T03:37:23.351Z,20.04
2022-08-16T03:39:56.575Z,20.00
2022-08-16T03:42:28.501Z,19.94
2022-08-16T03:45:03.305Z,19.94
2022-08-16T03:47:34.328Z,19.93
2022-08-16T03:50:25.932Z,19.91
2022-08-16T03:53:00.544Z,19.88
2022-08-16T03:55:39.997Z,19.88
2022-08-16T03:58:12.638Z,19.84
2022-08-16T04:00:41.259Z,19.78
2022-08-16T04:03:08.751Z,19.81
2022-08-16T04:05:47.323Z,19.81
2022-08-16T04:08:24.078Z,19.80
2022-08-16T04:10:53.141Z,19.78
2022-08-16T04:13:59.407Z,19.78
2022-08-16T04:16:07.791Z,19.77
2022-08-16T04:18:38.793Z,19.77
2022-08-16T04:21:06.066Z,19.72
2022-08-16T04:23:32.587Z,19.68
2022-08-16T04:26:02.145Z,19.72
2022-08-16T04:28:55.798Z,19.72
2022-08-16T04:31:18.064Z,19.70
2022-08-16T04:33:50.996Z,19.72
2022-08-16T04:36:20.059Z,19.75
2022-08-16T04:38:50.026Z,19.76
2022-08-16T04:41:19.832Z,19.77
2022-08-16T04:44:00.328Z,19.78
2022-08-16T04:47:02.719Z,19.75
2022-08-16T04:49:18.408Z,19.82
2022-08-16T04:51:45.644Z,19.85
2022-08-16T04:54:20.843Z,19.88
2022-08-16T04:56:49.869Z,19.93
2022-08-16T04:59:20.457Z,20.00
2022-08-16T05:01:59.233Z,20.07
2022-08-16T05:04:26.146Z,20.55
2022-08-16T05:06:57.318Z,21.53
2022-08-16T05:09:24.452Z,22.23
2022-08-16T05:11:53.274Z,22.97
2022-08-16T05:14:45.677Z,23.59
2022-08-16T05:17:13.948Z,24.33
2022-08-16T05:19:40.603Z,24.92
2022-08-16T05:22:18.180Z,25.53
2022-08-16T05:24:45.077Z,26.03
2022-08-16T05:27:13.946Z,26.61
2022-08-16T05:29:56.824Z,27.21
2022-08-16T05:32:32.427Z,27.86
2022-08-16T05:35:07.702Z,28.42
2022-08-16T05:37:40.226Z,29.09
2022-08-16T05:40:08.374Z,29.62
2022-08-16T05:42:37.513Z,30.06
2022-08-16T05:45:06.919Z,30.48
2022-08-16T05:47:33.659Z,31.10
2022-08-16T05:50:10.294Z,31.56
2022-08-16T05:52:46.131Z,31.94
2022-08-16T05:55:13.585Z,32.46
2022-08-16T05:57:40.231Z,32.73
2022-08-16T06:00:11.994Z,32.98
2022-08-16T06:02:38.643Z,33.38
2022-08-16T06:05:06.653Z,33.73
2022-08-16T06:07:38.531Z,33.95
2022-08-16T06:10:06.855Z,34.50
2022-08-16T06:12:36.685Z,34.89
2022-08-16T06:15:11.478Z,35.14
2022-08-16T06:17:44.165Z,35.47
2022-08-16T06:20:25.437Z,35.73
2022-08-16T06:23:03.316Z,35.95
2022-08-16T06:25:36.237Z,36.20
2022-08-16T06:28:08.573Z,36.37
2022-08-16T06:30:43.513Z,36.51
2022-08-16T06:33:22.280Z,36.78
2022-08-16T06:35:54.664Z,36.80
2022-08-16T06:38:33.935Z,36.78
2022-08-16T06:41:05.721Z,36.76
2022-08-16T06:43:33.573Z,36.96
2022-08-16T06:46:03.803Z,37.22
2022-08-16T06:48:32.942Z,37.68
2022-08-16T06:51:03.297Z,37.86
2022-08-16T06:53:32.557Z,38.08
2022-08-16T06:56:05.931Z,37.91
2022-08-16T06:58:34.397Z,37.53
2022-08-16T07:01:04.714Z,37.78
2022-08-16T07:03:55.240Z,37.95
2022-08-16T07:06:26.767Z,38.22
2022-08-16T07:08:54.307Z,38.48
2022-08-16T07:11:47.917Z,38.91
2022-08-16T07:14:26.447Z,39.01
2022-08-16T07:16:57.784Z,38.98
2022-08-16T07:20:03.734Z,39.30
2022-08-16T07:22:37.444Z,39.51
2022-08-16T07:24:59.024Z,39.85
2022-08-16T07:27:25.976Z,40.11
2022-08-16T07:29:55.711Z,40.07
2022-08-16T07:32:29.160Z,40.14
2022-08-16T07:34:56.516Z,39.44
2022-08-16T07:37:25.119Z,39.37
2022-08-16T07:39:52.567Z,39.66
2022-08-16T07:42:34.888Z,39.56
2022-08-16T07:45:03.374Z,39.17
2022-08-16T07:47:35.197Z,39.54
2022-08-16T07:50:07.470Z,39.82
2022-08-16T07:52:38.982Z,40.13
2022-08-16T07:55:08.043Z,40.25
2022-08-16T07:57:40.112Z,39.66
2022-08-16T08:00:21.733Z,37.94
2022-08-16T08:02:55.657Z,38.93
2022-08-16T08:05:25.424Z,39.60
2022-08-16T08:08:03.175Z,39.93
2022-08-16T08:10:38.962Z,39.96
2022-08-16T08:13:05.841Z,39.77
2022-08-16T08:15:34.571Z,39.79
2022-08-16T08:18:29.991Z,39.53
2022-08-16T08:20:59.289Z,39.82
2022-08-16T08:23:26.442Z,40.15
2022-08-16T08:25:55.825Z,40.46
2022-08-16T08:28:22.874Z,40.51
2022-08-16T08:31:01.477Z,40.54
2022-08-16T08:33:31.516Z,40.24
2022-08-16T08:36:01.418Z,40.25
2022-08-16T08:38:43.700Z,40.42
2022-08-16T08:41:15.408Z,40.51
2022-08-16T08:43:46.456Z,40.38
2022-08-16T08:46:18.308Z,40.41
2022-08-16T08:48:59.267Z,40.42
2022-08-16T08:51:35.939Z,40.28
2022-08-16T08:54:09.495Z,39.97
2022-08-16T08:56:45.835Z,39.85
2022-08-16T08:59:19.873Z,39.55
2022-08-16T09:01:57.014Z,39.35
2022-08-16T09:04:26.551Z,39.15
2022-08-16T09:06:56.119Z,38.73
2022-08-16T09:09:25.286Z,38.23
2022-08-16T09:12:06.438Z,37.56
2022-08-16T09:14:34.531Z,37.44
2022-08-16T09:17:14.068Z,37.29
2022-08-16T09:19:50.312Z,37.20
2022-08-16T09:22:22.641Z,36.90
2022-08-16T09:24:53.254Z,36.89
2022-08-16T09:27:23.315Z,37.06
2022-08-16T09:30:00.126Z,37.09
2022-08-16T09:32:30.942Z,37.00
2022-08-16T09:35:05.530Z,36.69
2022-08-16T09:37:37.571Z,36.20
2022-08-16T09:40:31.963Z,35.84
2022-08-16T09:43:05.843Z,35.55
2022-08-16T09:45:39.194Z,35.74
2022-08-16T09:48:36.877Z,35.85
2022-08-16T09:50:59.461Z,35.91
2022-08-16T09:53:32.964Z,35.85
2022-08-16T09:56:03.061Z,35.74
2022-08-16T09:59:05.743Z,35.81
2022-08-16T10:01:26.851Z,35.61
2022-08-16T10:04:01.911Z,35.42
2022-08-16T10:06:34.726Z,35.31
2022-08-16T10:09:12.289Z,34.94
2022-08-16T10:12:11.662Z,34.90
2022-08-16T10:14:46.902Z,34.90
2022-08-16T10:17:13.738Z,34.82
2022-08-16T10:19:50.369Z,34.65
2022-08-16T10:22:18.408Z,34.51
2022-08-16T10:24:56.051Z,34.55
2022-08-16T10:27:30.068Z,34.27
2022-08-16T10:30:26.018Z,34.20
2022-08-16T10:32:55.662Z,34.21
2022-08-16T10:35:33.004Z,34.16
2022-08-16T10:38:01.555Z,34.12
2022-08-16T10:40:30.642Z,34.20
2022-08-16T10:43:03.402Z,34.12
2022-08-16T10:45:37.002Z,33.86
2022-08-16T10:48:27.421Z,33.62
2022-08-16T10:50:59.878Z,33.61
2022-08-16T10:53:32.784Z,33.71
2022-08-16T10:56:55.828Z,33.72
2022-08-16T11:13:21.081Z,33.52
2022-08-16T11:18:54.727Z,33.67
2022-08-16T11:21:28.981Z,33.44
2022-08-16T11:23:59.858Z,33.44
2022-08-16T11:26:27.819Z,33.75
2022-08-16T11:29:14.037Z,33.82
2022-08-16T11:31:43.371Z,33.83
2022-08-16T11:34:14.253Z,33.71
2022-08-16T11:36:53.786Z,33.89
2022-08-16T11:39:59.631Z,34.16
2022-08-16T11:42:32.237Z,34.19
2022-08-16T11:45:08.574Z,34.12
2022-08-16T11:47:35.167Z,34.09
2022-08-16T11:50:04.277Z,34.11
2022-08-16T11:52:33.371Z,33.66
2022-08-16T11:55:02.492Z,33.63
2022-08-16T11:57:29.941Z,33.73
2022-08-16T11:59:58.799Z,33.76
2022-08-16T12:02:30.913Z,33.71
2022-08-16T12:05:00.009Z,33.56
2022-08-16T12:07:28.609Z,33.48
2022-08-16T12:09:55.213Z,33.31
2022-08-16T12:12:25.789Z,33.21
2022-08-16T12:15:00.368Z,33.24
2022-08-16T12:17:31.705Z,33.31
2022-08-16T12:20:05.078Z,33.43
2022-08-16T12:22:36.713Z,33.77
2022-08-16T12:25:06.671Z,34.00
2022-08-16T12:27:36.272Z,34.11
2022-08-16T12:30:21.358Z,34.25
2022-08-16T12:32:58.032Z,34.54
2022-08-16T12:35:27.548Z,34.56
2022-08-16T12:37:56.955Z,34.53
2022-08-16T12:40:32.880Z,34.35
2022-08-16T12:43:01.748Z,34.09
2022-08-16T12:45:33.881Z,33.89
2022-08-16T12:48:36.576Z,33.76
2022-08-16T12:51:19.886Z,33.85
2022-08-16T12:53:52.539Z,34.18
2022-08-16T12:56:26.052Z,34.47
2022-08-16T12:58:55.890Z,34.53
2022-08-16T13:01:29.026Z,34.48
2022-08-16T13:04:20.500Z,34.34
2022-08-16T13:06:48.439Z,34.13
2022-08-16T13:09:20.757Z,34.09
2022-08-16T13:12:00.530Z,34.04
2022-08-16T13:14:41.082Z,34.08
2022-08-16T13:17:18.542Z,34.22
2022-08-16T13:22:34.979Z,34.10
2022-08-16T13:25:02.025Z,34.16
2022-08-16T13:27:59.875Z,34.04
2022-08-16T13:30:36.241Z,33.94
2022-08-16T13:33:11.279Z,33.84
2022-08-16T13:35:46.265Z,33.74
2022-08-16T13:38:25.803Z,33.47
2022-08-16T13:40:56.764Z,33.19
2022-08-16T13:43:26.901Z,33.02
2022-08-16T13:45:56.308Z,32.93
2022-08-16T13:48:37.070Z,32.96
2022-08-16T13:51:17.062Z,32.87
2022-08-16T13:53:59.239Z,32.83
2022-08-16T13:56:35.922Z,32.83
2022-08-16T13:59:19.769Z,33.00
2022-08-16T14:01:55.641Z,33.15
2022-08-16T14:04:26.545Z,33.24
2022-08-16T14:06:54.862Z,33.33
2022-08-16T14:09:23.688Z,33.34
2022-08-16T14:11:53.398Z,33.35
2022-08-16T14:14:21.652Z,33.32
2022-08-16T14:16:55.880Z,33.29
2022-08-16T14:19:26.551Z,33.30
2022-08-16T14:22:14.739Z,33.32
2022-08-16T14:24:47.782Z,33.10
2022-08-16T14:27:22.603Z,32.95
2022-08-16T14:29:51.237Z,32.89
2022-08-16T14:32:32.940Z,32.99
2022-08-16T14:35:07.677Z,32.98
2022-08-16T14:37:35.155Z,32.74
2022-08-16T14:40:04.385Z,32.67
2022-08-16T14:42:31.846Z,32.55
2022-08-16T14:45:00.423Z,32.50
2022-08-16T14:47:31.599Z,32.46
2022-08-16T14:50:01.305Z,32.42
2022-08-16T14:52:54.153Z,32.38
2022-08-16T14:55:14.820Z,32.40
2022-08-16T14:57:42.614Z,32.44
2022-08-16T15:00:18.194Z,32.53
2022-08-16T15:02:49.874Z,32.56
2022-08-16T15:05:23.035Z,32.63
2022-08-16T15:07:53.098Z,32.61
2022-08-16T15:10:24.396Z,32.57
2022-08-16T15:12:56.313Z,32.65
2022-08-16T15:15:27.527Z,32.77
2022-08-16T15:17:56.941Z,32.78
2022-08-16T15:20:29.619Z,32.81
2022-08-16T15:22:59.630Z,32.74
2022-08-16T15:25:30.809Z,32.55
2022-08-16T15:28:00.881Z,32.38
2022-08-16T15:30:58.410Z,32.21
2022-08-16T15:33:20.818Z,32.03
2022-08-16T15:35:50.599Z,31.96
2022-08-16T15:38:57.353Z,31.89
2022-08-16T15:41:06.028Z,31.80
2022-08-16T15:43:39.498Z,31.75
2022-08-16T15:46:55.655Z,31.68
2022-08-16T15:49:14.815Z,31.61
2022-08-16T15:51:45.051Z,31.48
2022-08-16T15:54:29.651Z,31.29
2022-08-16T15:57:04.337Z,31.19
2022-08-16T15:59:49.326Z,31.06
2022-08-16T16:02:27.649Z,30.98
2022-08-16T16:04:57.131Z,30.92
2022-08-16T16:07:27.351Z,30.86
2022-08-16T16:09:56.644Z,30.91
2022-08-16T16:15:12.213Z,30.91
2022-08-16T16:17:38.762Z,30.93
2022-08-16T16:20:13.141Z,30.98
2022-08-16T16:22:43.557Z,31.02
2022-08-16T16:25:10.572Z,30.97
2022-08-16T16:27:37.194Z,31.06
2022-08-16T16:30:32.855Z,31.10
2022-08-16T16:32:58.092Z,31.06
2022-08-16T16:35:26.357Z,30.98
2022-08-16T16:37:56.538Z,30.80
2022-08-16T16:40:32.787Z,30.65
2022-08-16T16:43:00.434Z,30.47
2022-08-16T16:45:34.704Z,30.37
2022-08-16T16:48:12.706Z,30.30
2022-08-16T16:50:44.721Z,30.27
2022-08-16T16:53:17.275Z,30.17
2022-08-16T16:55:51.568Z,30.09
2022-08-16T16:58:43.236Z,29.96
2022-08-16T17:01:11.241Z,29.87
2022-08-16T17:03:38.512Z,29.85
2022-08-16T17:06:09.198Z,29.82
2022-08-16T17:08:41.592Z,29.75
2022-08-16T17:11:10.397Z,29.68
2022-08-16T17:13:38.425Z,29.83
2022-08-16T17:16:05.332Z,29.75
2022-08-16T17:19:16.282Z,29.73
2022-08-16T17:21:22.978Z,29.59
2022-08-16T17:23:58.582Z,29.45
2022-08-16T17:26:33.185Z,29.43
2022-08-16T17:29:10.843Z,29.34
2022-08-16T17:31:43.046Z,29.21
2022-08-16T17:34:28.953Z,29.10
2022-08-16T17:37:04.978Z,28.97
2022-08-16T17:39:54.824Z,28.90
2022-08-16T17:42:28.823Z,28.81
2022-08-16T17:44:57.626Z,28.79
2022-08-16T17:47:24.619Z,28.71
2022-08-16T17:49:52.263Z,28.65
2022-08-16T17:52:19.890Z,28.61
2022-08-16T17:54:47.089Z,28.54
2022-08-16T17:57:16.992Z,28.47
2022-08-16T17:59:44.383Z,28.41
2022-08-16T18:02:42.670Z,28.37
2022-08-16T18:04:59.458Z,28.27
2022-08-16T18:07:26.607Z,28.20
2022-08-16T18:09:53.380Z,28.11
2022-08-16T18:12:50.964Z,28.05
2022-08-16T18:15:17.290Z,27.99
2022-08-16T18:17:48.793Z,27.90
2022-08-16T18:20:34.551Z,27.82
2022-08-16T18:23:17.797Z,27.77
2022-08-16T18:25:54.471Z,27.62
2022-08-16T18:28:22.149Z,27.60
2022-08-16T18:30:51.956Z,27.59
2022-08-16T18:33:22.616Z,27.48
2022-08-16T18:35:55.602Z,27.36
2022-08-16T18:38:24.227Z,27.42
2022-08-16T18:40:51.138Z,27.36
2022-08-16T18:43:22.165Z,27.25
2022-08-16T18:46:08.777Z,27.24
2022-08-16T18:48:35.739Z,27.17
2022-08-16T18:51:09.237Z,27.12
2022-08-16T18:53:39.218Z,27.03
2022-08-16T18:56:06.179Z,27.02
2022-08-16T18:58:34.027Z,26.93
2022-08-16T19:01:00.820Z,26.86
2022-08-16T19:03:32.241Z,26.78
2022-08-16T19:06:06.182Z,26.71
2022-08-16T19:08:35.788Z,26.64
2022-08-16T19:11:04.120Z,26.58
2022-08-16T19:13:33.540Z,27.00
2022-08-16T19:16:02.184Z,26.68
2022-08-16T19:18:30.472Z,26.57
2022-08-16T19:21:04.952Z,26.48
2022-08-16T19:23:34.461Z,26.38
2022-08-16T19:26:07.441Z,26.30
2022-08-16T19:28:50.070Z,26.29
2022-08-16T19:31:28.792Z,26.20
2022-08-16T19:33:56.721Z,26.17
2022-08-16T19:36:33.918Z,26.13
2022-08-16T19:39:13.834Z,26.11
2022-08-16T19:41:46.681Z,26.06
2022-08-16T19:44:19.889Z,25.99
2022-08-16T19:46:49.305Z,25.85
2022-08-16T19:49:16.901Z,25.78
2022-08-16T19:51:51.617Z,25.79
2022-08-16T19:54:18.211Z,25.73
2022-08-16T19:56:47.121Z,25.69
2022-08-16T19:59:20.022Z,25.66
2022-08-16T20:01:51.031Z,25.59
2022-08-16T20:04:21.827Z,25.56
2022-08-16T20:06:48.568Z,25.48
2022-08-16T20:09:15.812Z,25.48
2022-08-16T20:11:46.478Z,25.46
2022-08-16T20:14:24.747Z,25.43
2022-08-16T20:16:57.073Z,25.38
2022-08-16T20:19:24.353Z,25.34
2022-08-16T20:21:54.091Z,25.28
2022-08-16T20:24:34.051Z,25.21
2022-08-16T20:27:06.201Z,25.13
2022-08-16T20:29:33.355Z,25.08
2022-08-16T20:32:00.104Z,25.00
2022-08-16T20:34:26.692Z,24.94
2022-08-16T20:36:53.339Z,24.88
2022-08-16T20:39:20.016Z,24.80
2022-08-16T20:41:46.635Z,24.72
2022-08-16T20:44:15.651Z,24.68
2022-08-16T20:46:49.790Z,24.59
2022-08-16T20:49:16.343Z,24.54
2022-08-16T20:51:49.558Z,24.48
2022-08-16T20:54:19.199Z,24.45
2022-08-16T20:56:45.854Z,24.42
2022-08-16T20:59:12.453Z,24.37
2022-08-16T21:01:46.629Z,24.31
2022-08-16T21:04:17.624Z,24.28
2022-08-16T21:06:53.064Z,24.13
2022-08-16T21:09:26.725Z,24.15
2022-08-16T21:11:55.866Z,24.13
2022-08-16T21:14:26.690Z,24.08
2022-08-16T21:16:53.427Z,24.07
2022-08-16T21:19:21.930Z,24.04
2022-08-16T21:21:49.087Z,24.01
2022-08-16T21:24:16.263Z,23.96
2022-08-16T21:26:53.033Z,23.94
2022-08-16T21:29:25.090Z,23.90
2022-08-16T21:31:54.559Z,23.86
2022-08-16T21:34:21.506Z,23.82
2022-08-16T21:36:48.818Z,23.80
2022-08-16T21:39:15.496Z,23.73
2022-08-16T21:41:42.024Z,23.65
2022-08-16T21:44:08.653Z,23.65
2022-08-16T21:46:37.469Z,23.56
2022-08-16T21:49:05.806Z,23.53
2022-08-16T21:51:32.401Z,23.50
2022-08-16T21:53:59.305Z,23.49
2022-08-16T21:56:25.928Z,23.45
2022-08-16T21:58:53.738Z,23.43
2022-08-16T22:01:23.042Z,23.38
2022-08-16T22:04:27.213Z,23.22
2022-08-16T22:06:38.755Z,23.15
2022-08-16T22:09:07.054Z,23.09
2022-08-16T22:11:34.197Z,23.04
2022-08-16T22:14:01.012Z,23.12
2022-08-16T22:16:31.005Z,23.17
2022-08-16T22:18:57.775Z,23.10
2022-08-16T22:21:27.444Z,23.04
2022-08-16T22:23:57.648Z,23.03
2022-08-16T22:26:32.684Z,23.09
2022-08-16T22:29:09.690Z,23.12
2022-08-16T22:31:39.250Z,23.13
2022-08-16T22:34:06.274Z,23.15
2022-08-16T22:36:33.749Z,23.14
2022-08-16T22:39:05.801Z,23.13
2022-08-16T22:41:34.464Z,23.15
2022-08-16T22:44:05.837Z,23.14
2022-08-16T22:46:34.792Z,23.14
2022-08-16T22:49:01.350Z,23.15
2022-08-16T22:51:28.637Z,23.13
2022-08-16T22:53:58.294Z,23.10
2022-08-16T22:56:25.471Z,23.09
2022-08-16T22:58:54.491Z,22.99
2022-08-16T23:01:26.588Z,23.02
2022-08-16T23:03:59.886Z,23.00
2022-08-16T23:06:26.531Z,22.99
2022-08-16T23:08:53.367Z,22.95
2022-08-16T23:11:25.457Z,22.99
2022-08-16T23:13:56.379Z,22.97
2022-08-16T23:16:30.810Z,22.97
2022-08-16T23:19:02.067Z,22.97
2022-08-16T23:21:28.791Z,22.94
2022-08-16T23:23:55.467Z,22.96
2022-08-16T23:26:45.406Z,22.90
2022-08-16T23:29:15.902Z,22.88
2022-08-16T23:31:53.598Z,22.91
2022-08-16T23:34:21.583Z,22.92
2022-08-16T23:36:48.110Z,22.92
2022-08-16T23:39:14.700Z,22.89
2022-08-16T23:41:41.427Z,22.82
2022-08-16T23:44:55.537Z,22.85
2022-08-16T23:46:55.625Z,22.80
2022-08-16T23:50:00.170Z,22.80
2022-08-16T23:52:13.643Z,22.74
2022-08-16T23:54:40.246Z,22.73
2022-08-16T23:57:08.308Z,22.63
2022-08-16T23:59:48.606Z,22.62
